createdAt,value
2023-04-15T00:00:18.745Z,8.85
2023-04-15T00:01:18.721Z,8.86
2023-04-15T00:02:18.931Z,8.87
2023-04-15T00:03:19.064Z,8.92
2023-04-15T00:04:18.880Z,8.96
2023-04-15T00:05:18.770Z,8.95
2023-04-15T00:06:18.727Z,8.93
2023-04-15T00:07:18.727Z,8.89
2023-04-15T00:08:18.775Z,8.88
2023-04-15T00:10:18.738Z,8.86
2023-04-15T00:11:18.797Z,8.87
2023-04-15T00:13:18.796Z,8.84
2023-04-15T00:14:18.777Z,8.83
2023-04-15T00:15:18.782Z,8.82
2023-04-15T00:16:18.855Z,8.80
2023-04-15T00:17:18.866Z,8.79
2023-04-15T00:18:18.792Z,8.75
2023-04-15T00:19:18.825Z,8.71
2023-04-15T00:21:18.813Z,8.68
2023-04-15T00:22:21.518Z,8.69
2023-04-15T00:23:18.791Z,8.70
2023-04-15T00:24:18.796Z,8.72
2023-04-15T00:25:18.799Z,8.76
2023-04-15T00:26:18.847Z,8.77
2023-04-15T00:27:18.816Z,8.80
2023-04-15T00:28:18.800Z,8.84
2023-04-15T00:29:18.842Z,8.87
2023-04-15T00:30:18.817Z,8.89
2023-04-15T00:31:18.885Z,8.91
2023-04-15T00:32:18.863Z,8.93
2023-04-15T00:34:18.828Z,8.94
2023-04-15T00:35:18.825Z,8.96
2023-04-15T00:37:18.872Z,8.99
2023-04-15T00:38:18.849Z,8.97
2023-04-15T00:39:18.811Z,8.95
2023-04-15T00:40:18.887Z,8.90
2023-04-15T00:41:18.844Z,8.84
2023-04-15T00:42:18.860Z,8.76
2023-04-15T00:43:18.854Z,8.74
2023-04-15T00:45:18.888Z,8.73
2023-04-15T00:46:18.852Z,8.71
2023-04-15T00:49:18.857Z,8.72
2023-04-15T00:50:18.870Z,8.74
2023-04-15T00:51:18.844Z,8.75
2023-04-15T00:53:18.909Z,8.77
2023-04-15T00:54:18.859Z,8.78
2023-04-15T00:55:18.906Z,8.79
2023-04-15T00:56:18.912Z,8.81
2023-04-15T00:57:18.888Z,8.86
2023-04-15T00:58:18.933Z,8.83
2023-04-15T00:59:22.422Z,8.74
2023-04-15T01:00:18.891Z,8.73
2023-04-15T01:01:18.966Z,8.72
2023-04-15T01:02:19.004Z,8.73
2023-04-15T01:03:19.072Z,8.74
2023-04-15T01:04:19.066Z,8.78
2023-04-15T01:05:18.873Z,8.81
2023-04-15T01:06:18.913Z,8.86
2023-04-15T01:07:18.879Z,8.88
2023-04-15T01:08:18.882Z,8.90
2023-04-15T01:09:18.917Z,8.92
2023-04-15T01:10:18.905Z,8.93
2023-04-15T01:11:18.925Z,8.96
2023-04-15T01:12:18.928Z,8.98
2023-04-15T01:13:18.916Z,8.95
2023-04-15T01:14:18.953Z,8.93
2023-04-15T01:15:18.926Z,8.91
2023-04-15T01:16:18.964Z,8.89
2023-04-15T01:17:19.034Z,8.86
2023-04-15T01:18:18.919Z,8.85
2023-04-15T01:19:18.963Z,8.83
2023-04-15T01:20:18.938Z,8.84
2023-04-15T01:21:18.908Z,8.85
2023-04-15T01:23:19.076Z,8.86
2023-04-15T01:24:18.944Z,8.87
2023-04-15T01:25:19.001Z,8.89
2023-04-15T01:26:18.959Z,8.91
2023-04-15T01:28:18.966Z,8.90
2023-04-15T01:29:18.930Z,8.89
2023-04-15T01:30:18.990Z,8.87
2023-04-15T01:31:18.987Z,8.85
2023-04-15T01:32:19.009Z,8.82
2023-04-15T01:34:18.968Z,8.81
2023-04-15T01:35:18.983Z,8.83
2023-04-15T01:36:22.734Z,8.84
2023-04-15T01:37:18.945Z,8.83
2023-04-15T01:39:18.971Z,8.82
2023-04-15T01:40:19.000Z,8.83
2023-04-15T01:41:18.959Z,8.84
2023-04-15T01:43:19.024Z,8.87
2023-04-15T01:44:18.999Z,8.91
2023-04-15T01:46:19.048Z,8.93
2023-04-15T01:48:19.038Z,8.94
2023-04-15T01:49:19.033Z,8.96
2023-04-15T01:50:19.040Z,8.99
2023-04-15T01:51:19.043Z,9.03
2023-04-15T01:52:19.026Z,9.07
2023-04-15T01:54:18.998Z,9.09
2023-04-15T01:55:18.991Z,9.07
2023-04-15T01:56:19.030Z,9.04
2023-04-15T01:58:19.021Z,9.02
2023-04-15T02:01:19.136Z,9.03
2023-04-15T02:02:19.078Z,9.05
2023-04-15T02:03:19.164Z,9.04
2023-04-15T02:04:19.056Z,9.02
2023-04-15T02:05:19.023Z,9.00
2023-04-15T02:06:19.071Z,9.01
2023-04-15T02:08:19.030Z,8.99
2023-04-15T02:09:20.530Z,8.98
2023-04-15T02:10:19.093Z,8.95
2023-04-15T02:12:19.137Z,8.94
2023-04-15T02:14:19.086Z,8.91
2023-04-15T02:17:19.166Z,8.89
2023-04-15T02:19:19.156Z,8.93
2023-04-15T02:20:19.132Z,8.95
2023-04-15T02:21:19.124Z,8.96
2023-04-15T02:22:19.135Z,9.00
2023-04-15T02:23:19.081Z,9.02
2023-04-15T02:25:19.143Z,9.05
2023-04-15T02:26:19.080Z,9.08
2023-04-15T02:27:19.118Z,9.09
2023-04-15T02:28:19.128Z,9.12
2023-04-15T02:29:19.112Z,9.13
2023-04-15T02:30:19.113Z,9.14
2023-04-15T02:31:19.096Z,9.16
2023-04-15T02:33:19.140Z,9.18
2023-04-15T02:36:19.145Z,9.19
2023-04-15T02:37:19.146Z,9.18
2023-04-15T02:39:19.148Z,9.16
2023-04-15T02:40:19.137Z,9.17
2023-04-15T02:41:19.180Z,9.16
2023-04-15T02:42:19.120Z,9.17
2023-04-15T02:43:19.157Z,9.18
2023-04-15T02:44:19.159Z,9.16
2023-04-15T02:45:19.132Z,9.17
2023-04-15T02:46:19.222Z,9.15
2023-04-15T02:47:19.224Z,9.16
2023-04-15T02:48:19.191Z,9.18
2023-04-15T02:49:19.161Z,9.17
2023-04-15T02:50:23.537Z,9.14
2023-04-15T02:52:19.165Z,9.12
2023-04-15T02:53:19.174Z,9.14
2023-04-15T02:56:19.204Z,9.13
2023-04-15T02:57:19.161Z,9.12
2023-04-15T02:58:19.166Z,9.14
2023-04-15T02:59:19.212Z,9.16
2023-04-15T03:00:19.151Z,9.17
2023-04-15T03:01:19.319Z,9.19
2023-04-15T03:02:19.263Z,9.15
2023-04-15T03:03:19.243Z,9.13
2023-04-15T03:04:19.269Z,9.10
2023-04-15T03:05:19.163Z,9.09
2023-04-15T03:06:19.184Z,9.10
2023-04-15T03:07:19.205Z,9.09
2023-04-15T03:09:19.175Z,9.08
2023-04-15T03:10:19.234Z,9.07
2023-04-15T03:11:19.211Z,9.08
2023-04-15T03:12:19.248Z,9.07
2023-04-15T03:13:19.215Z,9.03
2023-04-15T03:14:19.197Z,8.96
2023-04-15T03:15:19.215Z,8.94
2023-04-15T03:17:19.264Z,8.93
2023-04-15T03:18:19.206Z,8.92
2023-04-15T03:19:19.231Z,8.91
2023-04-15T03:20:19.277Z,8.90
2023-04-15T03:22:19.225Z,8.89
2023-04-15T03:25:19.253Z,8.91
2023-04-15T03:26:19.217Z,8.92
2023-04-15T03:27:23.826Z,8.93
2023-04-15T03:29:19.254Z,8.94
2023-04-15T03:30:19.253Z,8.96
2023-04-15T03:31:19.326Z,8.97
2023-04-15T03:32:19.285Z,8.98
2023-04-15T03:33:19.298Z,8.94
2023-04-15T03:34:19.267Z,8.93
2023-04-15T03:35:19.253Z,8.94
2023-04-15T03:36:19.330Z,8.96
2023-04-15T03:37:19.277Z,8.94
2023-04-15T03:38:19.304Z,8.91
2023-04-15T03:39:19.314Z,8.90
2023-04-15T03:40:19.263Z,8.89
2023-04-15T03:41:19.296Z,8.86
2023-04-15T03:44:19.331Z,8.85
2023-04-15T03:46:19.381Z,8.84
2023-04-15T03:47:19.276Z,8.83
2023-04-15T03:49:19.343Z,8.82
2023-04-15T03:51:19.290Z,8.80
2023-04-15T03:52:19.306Z,8.79
2023-04-15T03:53:19.267Z,8.78
2023-04-15T03:54:19.318Z,8.80
2023-04-15T03:55:19.309Z,8.81
2023-04-15T03:56:19.296Z,8.83
2023-04-15T03:57:19.315Z,8.85
2023-04-15T03:58:19.300Z,8.86
2023-04-15T04:00:19.382Z,8.87
2023-04-15T04:02:19.481Z,8.88
2023-04-15T04:03:19.589Z,8.90
2023-04-15T04:04:24.297Z,8.92
2023-04-15T04:07:19.375Z,8.94
2023-04-15T04:08:19.339Z,8.97
2023-04-15T04:09:19.345Z,9.00
2023-04-15T04:10:19.374Z,8.98
2023-04-15T04:11:19.363Z,8.96
2023-04-15T04:12:19.350Z,8.95
2023-04-15T04:13:19.383Z,8.96
2023-04-15T04:14:19.373Z,8.94
2023-04-15T04:15:19.374Z,8.93
2023-04-15T04:16:19.446Z,8.91
2023-04-15T04:17:19.386Z,8.89
2023-04-15T04:19:19.365Z,8.86
2023-04-15T04:20:19.350Z,8.82
2023-04-15T04:21:19.434Z,8.81
2023-04-15T04:22:19.386Z,8.80
2023-04-15T04:24:19.371Z,8.77
2023-04-15T04:25:19.359Z,8.72
2023-04-15T04:27:19.383Z,8.62
2023-04-15T04:28:19.428Z,8.67
2023-04-15T04:29:19.447Z,8.71
2023-04-15T04:30:19.390Z,8.60
2023-04-15T04:32:19.397Z,8.64
2023-04-15T04:33:19.385Z,8.70
2023-04-15T04:34:19.421Z,8.72
2023-04-15T04:35:19.408Z,8.75
2023-04-15T04:36:19.448Z,8.74
2023-04-15T04:37:19.403Z,8.76
2023-04-15T04:38:19.417Z,8.80
2023-04-15T04:39:19.436Z,8.82
2023-04-15T04:41:24.275Z,8.84
2023-04-15T04:42:19.449Z,8.89
2023-04-15T04:43:19.420Z,8.92
2023-04-15T04:44:19.454Z,8.95
2023-04-15T04:45:19.441Z,8.96
2023-04-15T04:46:19.479Z,8.95
2023-04-15T04:48:19.408Z,8.93
2023-04-15T04:49:19.473Z,8.91
2023-04-15T04:50:19.491Z,8.92
2023-04-15T04:51:19.456Z,8.94
2023-04-15T04:53:19.423Z,8.92
2023-04-15T04:54:19.431Z,8.93
2023-04-15T04:56:19.489Z,8.95
2023-04-15T04:58:19.466Z,8.96
2023-04-15T05:02:19.556Z,8.94
2023-04-15T05:04:19.495Z,8.93
2023-04-15T05:05:19.507Z,8.97
2023-04-15T05:06:19.485Z,8.96
2023-04-15T05:08:19.513Z,8.98
2023-04-15T05:09:19.484Z,9.01
2023-04-15T05:10:19.521Z,9.04
2023-04-15T05:11:19.510Z,9.06
2023-04-15T05:12:19.498Z,9.01
2023-04-15T05:13:19.527Z,8.96
2023-04-15T05:14:20.207Z,8.95
2023-04-15T05:16:19.629Z,8.98
2023-04-15T05:17:19.558Z,8.99
2023-04-15T05:18:24.573Z,9.01
2023-04-15T05:19:19.521Z,8.99
2023-04-15T05:20:19.521Z,9.00
2023-04-15T05:23:19.543Z,9.03
2023-04-15T05:24:19.565Z,9.05
2023-04-15T05:25:19.541Z,9.07
2023-04-15T05:26:19.553Z,9.08
2023-04-15T05:27:19.541Z,9.09
2023-04-15T05:28:19.529Z,9.12
2023-04-15T05:29:19.557Z,9.14
2023-04-15T05:30:19.545Z,9.16
2023-04-15T05:31:19.605Z,9.19
2023-04-15T05:32:19.660Z,9.22
2023-04-15T05:33:19.557Z,9.25
2023-04-15T05:34:19.588Z,9.31
2023-04-15T05:35:19.571Z,9.34
2023-04-15T05:36:19.528Z,9.36
2023-04-15T05:37:19.595Z,9.39
2023-04-15T05:38:19.549Z,9.43
2023-04-15T05:39:19.579Z,9.45
2023-04-15T05:40:19.581Z,9.47
2023-04-15T05:41:20.060Z,9.46
2023-04-15T05:43:19.581Z,9.49
2023-04-15T05:44:19.572Z,9.51
2023-04-15T05:46:19.621Z,9.53
2023-04-15T05:48:19.616Z,9.54
2023-04-15T05:49:19.584Z,9.52
2023-04-15T05:50:19.633Z,9.51
2023-04-15T05:52:19.807Z,9.56
2023-04-15T05:53:19.635Z,9.57
2023-04-15T05:54:20.397Z,9.53
2023-04-15T05:55:19.618Z,9.48
2023-04-15T05:56:19.579Z,9.39
2023-04-15T05:57:19.598Z,9.34
2023-04-15T05:58:19.617Z,9.18
2023-04-15T05:59:19.620Z,9.09
2023-04-15T06:00:19.597Z,8.92
2023-04-15T06:01:19.641Z,8.76
2023-04-15T06:02:19.711Z,8.62
2023-04-15T06:03:19.757Z,8.56
2023-04-15T06:04:19.687Z,8.49
2023-04-15T06:05:19.632Z,8.55
2023-04-15T06:06:19.659Z,8.59
2023-04-15T06:07:19.630Z,8.74
2023-04-15T06:08:19.614Z,8.89
2023-04-15T06:09:19.696Z,8.95
2023-04-15T06:10:19.653Z,8.85
2023-04-15T06:11:19.682Z,8.90
2023-04-15T06:12:19.613Z,9.04
2023-04-15T06:13:19.649Z,9.11
2023-04-15T06:14:19.685Z,9.24
2023-04-15T06:15:19.620Z,9.19
2023-04-15T06:16:19.695Z,9.18
2023-04-15T06:17:19.647Z,9.23
2023-04-15T06:18:19.611Z,9.37
2023-04-15T06:19:19.676Z,9.53
2023-04-15T06:20:19.631Z,9.51
2023-04-15T06:21:19.652Z,9.64
2023-04-15T06:22:19.692Z,9.73
2023-04-15T06:23:19.649Z,9.87
2023-04-15T06:24:19.679Z,9.84
2023-04-15T06:25:19.696Z,9.97
2023-04-15T06:26:19.692Z,10.10
2023-04-15T06:27:19.691Z,10.26
2023-04-15T06:28:19.678Z,10.41
2023-04-15T06:29:20.036Z,10.55
2023-04-15T06:30:19.737Z,10.68
2023-04-15T06:31:19.689Z,10.77
2023-04-15T06:32:19.781Z,10.71
2023-04-15T06:33:19.695Z,10.67
2023-04-15T06:34:19.713Z,10.61
2023-04-15T06:35:19.733Z,10.52
2023-04-15T06:36:19.708Z,10.53
2023-04-15T06:37:19.741Z,10.56
2023-04-15T06:38:19.741Z,10.59
2023-04-15T06:39:19.718Z,10.67
2023-04-15T06:40:19.718Z,10.76
2023-04-15T06:41:19.687Z,10.84
2023-04-15T06:42:19.689Z,10.82
2023-04-15T06:43:19.729Z,10.86
2023-04-15T06:44:19.730Z,10.97
2023-04-15T06:45:19.745Z,11.09
2023-04-15T06:46:19.887Z,11.23
2023-04-15T06:47:19.757Z,11.36
2023-04-15T06:48:19.764Z,11.47
2023-04-15T06:49:19.713Z,11.51
2023-04-15T06:51:19.784Z,11.50
2023-04-15T06:54:19.732Z,11.51
2023-04-15T06:55:19.745Z,11.52
2023-04-15T06:56:19.774Z,11.49
2023-04-15T06:57:19.754Z,11.47
2023-04-15T06:58:19.794Z,11.41
2023-04-15T06:59:19.766Z,11.35
2023-04-15T07:00:19.769Z,11.32
2023-04-15T07:01:19.845Z,11.29
2023-04-15T07:02:19.826Z,11.28
2023-04-15T07:03:19.818Z,11.30
2023-04-15T07:04:19.845Z,11.28
2023-04-15T07:06:20.355Z,11.29
2023-04-15T07:07:19.747Z,11.31
2023-04-15T07:08:19.752Z,11.36
2023-04-15T07:09:19.788Z,11.41
2023-04-15T07:10:19.743Z,11.47
2023-04-15T07:11:19.758Z,11.53
2023-04-15T07:12:19.829Z,11.58
2023-04-15T07:13:19.805Z,11.64
2023-04-15T07:14:19.817Z,11.67
2023-04-15T07:15:19.808Z,11.70
2023-04-15T07:16:19.808Z,11.71
2023-04-15T07:17:19.831Z,11.70
2023-04-15T07:18:19.810Z,11.72
2023-04-15T07:21:19.782Z,11.74
2023-04-15T07:22:19.848Z,11.78
2023-04-15T07:23:19.797Z,11.81
2023-04-15T07:24:19.804Z,11.82
2023-04-15T07:25:19.869Z,11.83
2023-04-15T07:26:19.811Z,11.80
2023-04-15T07:27:19.858Z,11.71
2023-04-15T07:28:19.870Z,11.70
2023-04-15T07:29:19.841Z,11.51
2023-04-15T07:30:19.841Z,11.53
2023-04-15T07:31:19.864Z,11.60
2023-04-15T07:32:19.844Z,11.41
2023-04-15T07:33:19.867Z,11.44
2023-04-15T07:34:19.846Z,11.43
2023-04-15T07:35:19.851Z,11.44
2023-04-15T07:36:19.856Z,11.54
2023-04-15T07:37:19.866Z,11.67
2023-04-15T07:38:19.899Z,11.82
2023-04-15T07:39:19.869Z,11.83
2023-04-15T07:41:19.882Z,11.76
2023-04-15T07:42:19.855Z,11.75
2023-04-15T07:43:20.634Z,11.80
2023-04-15T07:44:19.890Z,11.87
2023-04-15T07:45:19.865Z,11.97
2023-04-15T07:46:20.010Z,12.05
2023-04-15T07:47:19.923Z,12.13
2023-04-15T07:48:19.902Z,12.17
2023-04-15T07:50:19.895Z,12.12
2023-04-15T07:51:19.907Z,12.09
2023-04-15T07:52:19.884Z,12.10
2023-04-15T07:53:19.892Z,12.12
2023-04-15T07:54:19.960Z,12.17
2023-04-15T07:55:19.859Z,12.23
2023-04-15T07:56:19.915Z,12.30
2023-04-15T07:57:19.912Z,12.35
2023-04-15T07:58:19.925Z,12.33
2023-04-15T07:59:19.946Z,12.34
2023-04-15T08:00:19.878Z,12.29
2023-04-15T08:01:19.951Z,12.12
2023-04-15T08:02:20.076Z,12.07
2023-04-15T08:03:19.942Z,12.08
2023-04-15T08:04:20.147Z,12.11
2023-04-15T08:05:20.002Z,12.17
2023-04-15T08:06:19.900Z,12.23
2023-04-15T08:07:19.970Z,12.30
2023-04-15T08:08:19.937Z,12.36
2023-04-15T08:09:19.939Z,12.44
2023-04-15T08:10:19.968Z,12.50
2023-04-15T08:11:19.944Z,12.57
2023-04-15T08:12:20.025Z,12.65
2023-04-15T08:13:19.939Z,12.72
2023-04-15T08:14:19.962Z,12.78
2023-04-15T08:15:19.960Z,12.86
2023-04-15T08:16:20.014Z,12.85
2023-04-15T08:17:20.031Z,12.81
2023-04-15T08:18:19.965Z,12.69
2023-04-15T08:19:19.950Z,12.58
2023-04-15T08:20:20.951Z,12.40
2023-04-15T08:21:19.950Z,12.27
2023-04-15T08:22:21.254Z,12.17
2023-04-15T08:24:20.016Z,12.25
2023-04-15T08:25:20.018Z,12.36
2023-04-15T08:26:19.948Z,12.48
2023-04-15T08:27:19.968Z,12.61
2023-04-15T08:28:19.990Z,12.71
2023-04-15T08:29:19.997Z,12.80
2023-04-15T08:30:20.016Z,12.84
2023-04-15T08:31:20.076Z,12.89
2023-04-15T08:32:20.018Z,12.97
2023-04-15T08:33:20.034Z,13.05
2023-04-15T08:34:20.001Z,13.10
2023-04-15T08:35:20.003Z,13.16
2023-04-15T08:36:20.043Z,13.22
2023-04-15T08:37:20.000Z,13.26
2023-04-15T08:38:20.009Z,13.28
2023-04-15T08:39:20.018Z,13.29
2023-04-15T08:40:20.038Z,13.30
2023-04-15T08:41:20.043Z,13.31
2023-04-15T08:42:19.994Z,13.33
2023-04-15T08:43:20.004Z,13.35
2023-04-15T08:46:20.079Z,13.37
2023-04-15T08:47:20.042Z,13.38
2023-04-15T08:50:19.995Z,13.39
2023-04-15T08:51:20.018Z,13.35
2023-04-15T08:52:20.065Z,13.26
2023-04-15T08:53:20.055Z,13.09
2023-04-15T08:54:20.052Z,12.99
2023-04-15T08:55:20.014Z,12.95
2023-04-15T08:57:21.111Z,12.94
2023-04-15T08:58:20.116Z,12.96
2023-04-15T08:59:20.078Z,12.99
2023-04-15T09:00:20.051Z,13.05
2023-04-15T09:01:20.184Z,13.14
2023-04-15T09:02:20.184Z,13.21
2023-04-15T09:03:20.113Z,13.24
2023-04-15T09:04:20.157Z,13.29
2023-04-15T09:05:20.091Z,13.34
2023-04-15T09:06:20.048Z,13.31
2023-04-15T09:07:20.098Z,13.29
2023-04-15T09:08:20.092Z,13.31
2023-04-15T09:09:20.056Z,13.33
2023-04-15T09:10:20.130Z,13.35
2023-04-15T09:11:20.445Z,13.38
2023-04-15T09:12:20.118Z,13.39
2023-04-15T09:13:20.131Z,13.30
2023-04-15T09:14:20.113Z,13.21
2023-04-15T09:15:20.108Z,13.20
2023-04-15T09:16:20.143Z,13.18
2023-04-15T09:17:20.114Z,13.17
2023-04-15T09:18:20.143Z,13.16
2023-04-15T09:19:20.114Z,13.17
2023-04-15T09:20:20.119Z,13.14
2023-04-15T09:21:20.100Z,13.10
2023-04-15T09:22:20.085Z,13.13
2023-04-15T09:23:20.120Z,13.20
2023-04-15T09:24:20.109Z,13.26
2023-04-15T09:25:20.134Z,13.33
2023-04-15T09:26:20.138Z,13.41
2023-04-15T09:27:20.108Z,13.46
2023-04-15T09:28:20.163Z,13.53
2023-04-15T09:29:20.129Z,13.58
2023-04-15T09:30:20.134Z,13.59
2023-04-15T09:31:20.193Z,13.60
2023-04-15T09:34:21.370Z,13.55
2023-04-15T09:35:20.143Z,13.52
2023-04-15T09:36:20.148Z,13.53
2023-04-15T09:37:31.322Z,13.54
2023-04-15T09:38:20.153Z,13.56
2023-04-15T09:39:20.163Z,13.59
2023-04-15T09:40:20.126Z,13.65
2023-04-15T09:41:20.192Z,13.72
2023-04-15T09:42:20.163Z,13.79
2023-04-15T09:43:20.145Z,13.87
2023-04-15T09:44:20.168Z,13.92
2023-04-15T09:45:20.156Z,13.94
2023-04-15T09:46:20.209Z,13.98
2023-04-15T09:47:20.248Z,14.00
2023-04-15T09:48:20.173Z,14.02
2023-04-15T09:49:20.221Z,13.94
2023-04-15T09:50:20.196Z,13.77
2023-04-15T09:51:20.198Z,13.68
2023-04-15T09:52:20.193Z,13.57
2023-04-15T09:53:20.171Z,13.54
2023-04-15T09:54:20.193Z,13.56
2023-04-15T09:55:20.176Z,13.58
2023-04-15T09:56:20.203Z,13.64
2023-04-15T09:57:20.227Z,13.71
2023-04-15T09:58:20.247Z,13.76
2023-04-15T09:59:21.360Z,13.82
2023-04-15T10:00:20.231Z,13.76
2023-04-15T10:01:20.266Z,13.68
2023-04-15T10:02:20.331Z,13.63
2023-04-15T10:03:20.479Z,13.53
2023-04-15T10:04:20.315Z,13.39
2023-04-15T10:05:20.236Z,13.21
2023-04-15T10:06:20.227Z,13.07
2023-04-15T10:07:20.234Z,13.04
2023-04-15T10:08:20.231Z,13.09
2023-04-15T10:09:20.212Z,13.18
2023-04-15T10:10:20.227Z,13.23
2023-04-15T10:12:20.253Z,13.12
2023-04-15T10:13:20.284Z,12.86
2023-04-15T10:14:20.246Z,12.51
2023-04-15T10:15:20.288Z,12.26
2023-04-15T10:16:20.334Z,12.02
2023-04-15T10:17:20.244Z,11.92
2023-04-15T10:18:20.311Z,11.83
2023-04-15T10:19:20.256Z,11.77
2023-04-15T10:20:20.295Z,11.78
2023-04-15T10:21:20.321Z,11.59
2023-04-15T10:22:20.248Z,11.41
2023-04-15T10:23:20.298Z,11.17
2023-04-15T10:24:20.283Z,11.05
2023-04-15T10:25:20.327Z,11.08
2023-04-15T10:26:20.302Z,11.27
2023-04-15T10:27:20.321Z,11.53
2023-04-15T10:28:20.320Z,11.83
2023-04-15T10:29:20.281Z,12.03
2023-04-15T10:30:20.268Z,12.01
2023-04-15T10:31:20.350Z,11.93
2023-04-15T10:32:20.327Z,11.90
2023-04-15T10:33:20.282Z,12.01
2023-04-15T10:34:20.290Z,12.15
2023-04-15T10:35:20.316Z,12.28
2023-04-15T10:36:20.374Z,12.29
2023-04-15T10:37:20.308Z,12.13
2023-04-15T10:39:20.311Z,12.16
2023-04-15T10:40:20.296Z,12.29
2023-04-15T10:41:21.078Z,12.44
2023-04-15T10:42:20.339Z,12.57
2023-04-15T10:43:20.308Z,12.74
2023-04-15T10:44:20.354Z,12.86
2023-04-15T10:45:20.307Z,12.96
2023-04-15T10:46:20.395Z,13.04
2023-04-15T10:47:20.359Z,13.00
2023-04-15T10:49:20.348Z,12.85
2023-04-15T10:50:20.345Z,12.77
2023-04-15T10:51:20.346Z,12.84
2023-04-15T10:52:20.364Z,12.99
2023-04-15T10:53:21.823Z,13.03
2023-04-15T10:54:20.337Z,13.06
2023-04-15T10:55:20.363Z,13.08
2023-04-15T10:56:20.363Z,13.16
2023-04-15T10:57:20.399Z,13.14
2023-04-15T10:58:20.367Z,13.01
2023-04-15T10:59:21.389Z,12.96
2023-04-15T11:00:20.382Z,12.72
2023-04-15T11:01:20.373Z,12.59
2023-04-15T11:02:20.459Z,12.67
2023-04-15T11:03:20.510Z,12.76
2023-04-15T11:04:20.440Z,12.88
2023-04-15T11:05:20.412Z,13.00
2023-04-15T11:06:20.382Z,13.17
2023-04-15T11:07:20.359Z,13.31
2023-04-15T11:08:20.387Z,13.43
2023-04-15T11:09:20.365Z,13.47
2023-04-15T11:10:20.395Z,13.58
2023-04-15T11:11:20.387Z,13.59
2023-04-15T11:12:20.372Z,13.40
2023-04-15T11:13:20.426Z,13.29
2023-04-15T11:14:20.376Z,13.28
2023-04-15T11:15:20.398Z,13.35
2023-04-15T11:16:20.479Z,13.43
2023-04-15T11:17:20.382Z,13.49
2023-04-15T11:18:20.423Z,13.56
2023-04-15T11:19:20.401Z,13.62
2023-04-15T11:20:20.419Z,13.69
2023-04-15T11:21:20.447Z,13.60
2023-04-15T11:22:20.388Z,13.46
2023-04-15T11:23:20.447Z,13.35
2023-04-15T11:24:20.430Z,13.17
2023-04-15T11:25:22.210Z,12.98
2023-04-15T11:26:20.463Z,12.76
2023-04-15T11:27:20.398Z,12.70
2023-04-15T11:28:20.442Z,12.75
2023-04-15T11:29:20.460Z,12.85
2023-04-15T11:30:20.451Z,12.75
2023-04-15T11:31:20.547Z,12.69
2023-04-15T11:32:20.441Z,12.48
2023-04-15T11:33:20.446Z,12.29
2023-04-15T11:34:20.482Z,12.34
2023-04-15T11:35:20.446Z,12.29
2023-04-15T11:37:20.491Z,12.40
2023-04-15T11:38:20.434Z,12.60
2023-04-15T11:39:20.455Z,12.79
2023-04-15T11:40:20.455Z,12.98
2023-04-15T11:41:20.458Z,13.14
2023-04-15T11:42:20.485Z,13.29
2023-04-15T11:43:20.474Z,13.43
2023-04-15T11:44:20.522Z,13.55
2023-04-15T11:45:20.486Z,13.63
2023-04-15T11:46:20.471Z,13.61
2023-04-15T11:47:20.465Z,13.69
2023-04-15T11:48:20.471Z,13.73
2023-04-15T11:49:20.501Z,13.75
2023-04-15T11:50:20.691Z,13.68
2023-04-15T11:51:20.469Z,13.71
2023-04-15T11:52:20.499Z,13.75
2023-04-15T11:53:20.473Z,13.81
2023-04-15T11:54:20.490Z,13.87
2023-04-15T11:55:20.504Z,13.91
2023-04-15T11:56:20.498Z,13.97
2023-04-15T11:57:20.519Z,14.04
2023-04-15T11:58:20.537Z,14.09
2023-04-15T11:59:20.490Z,14.13
2023-04-15T12:00:20.515Z,14.21
2023-04-15T12:01:20.487Z,14.29
2023-04-15T12:02:22.612Z,14.35
2023-04-15T12:03:20.693Z,14.44
2023-04-15T12:04:22.543Z,14.47
2023-04-15T12:05:20.622Z,14.48
2023-04-15T12:06:20.590Z,14.37
2023-04-15T12:07:20.540Z,14.32
2023-04-15T12:08:20.533Z,14.36
2023-04-15T12:09:20.564Z,14.40
2023-04-15T12:10:20.524Z,14.47
2023-04-15T12:11:20.561Z,14.46
2023-04-15T12:12:20.518Z,14.50
2023-04-15T12:13:20.543Z,14.49
2023-04-15T12:14:20.595Z,14.54
2023-04-15T12:15:20.549Z,14.63
2023-04-15T12:16:20.662Z,14.74
2023-04-15T12:17:20.568Z,14.88
2023-04-15T12:18:20.547Z,14.96
2023-04-15T12:19:20.580Z,14.87
2023-04-15T12:20:20.517Z,14.85
2023-04-15T12:21:20.614Z,14.80
2023-04-15T12:22:20.556Z,14.82
2023-04-15T12:23:20.552Z,14.89
2023-04-15T12:24:20.590Z,14.98
2023-04-15T12:25:20.561Z,15.07
2023-04-15T12:26:20.582Z,15.15
2023-04-15T12:27:20.595Z,15.20
2023-04-15T12:28:20.590Z,15.27
2023-04-15T12:30:20.574Z,15.33
2023-04-15T12:33:20.803Z,15.32
2023-04-15T12:34:20.641Z,15.25
2023-04-15T12:35:20.633Z,15.20
2023-04-15T12:36:20.600Z,15.09
2023-04-15T12:38:20.622Z,14.98
2023-04-15T12:39:22.772Z,14.90
2023-04-15T12:40:20.626Z,14.91
2023-04-15T12:41:20.628Z,14.85
2023-04-15T12:42:20.673Z,14.86
2023-04-15T12:43:20.656Z,14.90
2023-04-15T12:44:20.597Z,14.91
2023-04-15T12:45:20.629Z,14.90
2023-04-15T12:46:20.659Z,14.79
2023-04-15T12:47:20.663Z,14.65
2023-04-15T12:48:20.658Z,14.59
2023-04-15T12:49:20.625Z,14.57
2023-04-15T12:50:20.674Z,14.62
2023-04-15T12:51:20.607Z,14.67
2023-04-15T12:52:20.613Z,14.66
2023-04-15T12:53:20.658Z,14.60
2023-04-15T12:54:20.643Z,14.58
2023-04-15T12:55:20.723Z,14.63
2023-04-15T12:56:20.665Z,14.67
2023-04-15T12:57:20.645Z,14.60
2023-04-15T12:58:20.684Z,14.58
2023-04-15T12:59:20.648Z,14.57
2023-04-15T13:00:20.693Z,14.53
2023-04-15T13:01:20.702Z,14.51
2023-04-15T13:02:20.734Z,14.52
2023-04-15T13:03:20.744Z,14.54
2023-04-15T13:04:20.873Z,14.59
2023-04-15T13:05:20.638Z,14.64
2023-04-15T13:06:20.708Z,14.67
2023-04-15T13:08:20.693Z,14.68
2023-04-15T13:09:20.703Z,14.69
2023-04-15T13:10:20.665Z,14.66
2023-04-15T13:11:20.692Z,14.65
2023-04-15T13:12:20.720Z,14.60
2023-04-15T13:13:20.675Z,14.53
2023-04-15T13:14:20.741Z,14.48
2023-04-15T13:15:20.685Z,14.45
2023-04-15T13:16:23.108Z,14.44
2023-04-15T13:17:20.727Z,14.45
2023-04-15T13:18:20.679Z,14.41
2023-04-15T13:19:20.732Z,14.35
2023-04-15T13:20:20.683Z,14.27
2023-04-15T13:21:20.730Z,14.25
2023-04-15T13:22:20.736Z,14.20
2023-04-15T13:23:20.690Z,14.10
2023-04-15T13:24:20.733Z,13.98
2023-04-15T13:25:20.729Z,13.96
2023-04-15T13:26:20.718Z,13.95
2023-04-15T13:27:20.754Z,13.96
2023-04-15T13:28:20.724Z,13.91
2023-04-15T13:29:20.720Z,13.90
2023-04-15T13:31:20.758Z,13.74
2023-04-15T13:32:20.808Z,13.65
2023-04-15T13:33:20.759Z,13.57
2023-04-15T13:34:20.716Z,13.56
2023-04-15T13:35:20.789Z,13.65
2023-04-15T13:36:20.733Z,13.73
2023-04-15T13:37:20.753Z,13.69
2023-04-15T13:39:20.738Z,13.71
2023-04-15T13:40:20.771Z,13.77
2023-04-15T13:41:20.774Z,13.83
2023-04-15T13:42:20.752Z,13.52
2023-04-15T13:43:20.780Z,13.33
2023-04-15T13:44:22.218Z,13.17
2023-04-15T13:45:20.749Z,13.12
2023-04-15T13:46:20.799Z,13.18
2023-04-15T13:47:20.763Z,13.28
2023-04-15T13:48:20.824Z,13.41
2023-04-15T13:49:20.738Z,13.50
2023-04-15T13:50:20.786Z,13.56
2023-04-15T13:51:20.830Z,13.63
2023-04-15T13:53:37.650Z,13.69
2023-04-15T13:54:20.829Z,13.57
2023-04-15T13:55:23.044Z,13.48
2023-04-15T13:56:20.834Z,13.46
2023-04-15T13:57:20.817Z,13.53
2023-04-15T13:58:20.800Z,13.60
2023-04-15T13:59:20.839Z,13.66
2023-04-15T14:00:20.815Z,13.73
2023-04-15T14:01:20.887Z,13.71
2023-04-15T14:02:20.889Z,13.66
2023-04-15T14:03:20.943Z,13.56
2023-04-15T14:04:20.945Z,13.32
2023-04-15T14:05:20.812Z,13.17
2023-04-15T14:06:20.854Z,13.01
2023-04-15T14:07:20.801Z,12.97
2023-04-15T14:08:20.829Z,12.88
2023-04-15T14:09:20.880Z,12.72
2023-04-15T14:10:20.848Z,12.61
2023-04-15T14:11:20.809Z,12.45
2023-04-15T14:12:20.855Z,12.37
2023-04-15T14:13:20.834Z,12.39
2023-04-15T14:14:20.844Z,12.47
2023-04-15T14:15:20.863Z,12.59
2023-04-15T14:16:20.882Z,12.73
2023-04-15T14:17:20.915Z,12.86
2023-04-15T14:18:20.876Z,12.96
2023-04-15T14:19:20.852Z,13.02
2023-04-15T14:20:20.899Z,13.06
2023-04-15T14:21:20.858Z,13.15
2023-04-15T14:22:20.932Z,13.28
2023-04-15T14:23:20.853Z,13.31
2023-04-15T14:24:20.869Z,13.30
2023-04-15T14:25:32.825Z,13.33
2023-04-15T14:26:20.834Z,13.31
2023-04-15T14:27:20.888Z,13.33
2023-04-15T14:28:20.847Z,13.36
2023-04-15T14:29:20.896Z,13.38
2023-04-15T14:30:23.673Z,13.41
2023-04-15T14:31:20.919Z,13.45
2023-04-15T14:32:20.897Z,13.47
2023-04-15T14:33:20.887Z,13.45
2023-04-15T14:34:20.864Z,13.43
2023-04-15T14:35:20.931Z,13.42
2023-04-15T14:37:20.881Z,13.37
2023-04-15T14:38:20.930Z,13.38
2023-04-15T14:39:20.897Z,13.40
2023-04-15T14:42:20.894Z,13.42
2023-04-15T14:43:20.908Z,13.44